LGKO/KGS METAR and TAF weather

Enter ICAO airport designator
Station Type Date Time Source
LGKO METAR 2021/05/07 00:50 UTC NOAA

LGKO 070050Z 32002KT 9999 FEW030 17/15 Q1013


Station Type Date Time Source
LGKO Decoded METAR 2021/05/07 00:50 UTC NOAA

Kos Airport , Greece (LGKO) 36-47N 027-04E
May 06, 2021 - 08:50 PM EDT / 2021.05.07 0050 UTC
Wind: from the NW (320 degrees) at 2 MPH (2 KT):0
Visibility: greater than 7 mile(s):0
Sky conditions: mostly clear
Temperature: 62 F (17 C)
Dew Point: 59 F (15 C)
Relative Humidity: 88%
Pressure (altimeter): 29.91 in. Hg (1013 hPa)
ob: LGKO 070050Z 32002KT 9999 FEW030 17/15 Q1013
cycle: 1

Station Type Date Time Source
LGKO TAF 2021/05/06 18:12 UTC NOAA

TAF LGKO 061700Z 0618/0718 30012KT 9999 FEW018
BECMG 0704/0706 VRB05KT

Example: see airport list